createdAt,value
2019-06-26T00:00:29.754Z,99.90
2019-06-26T00:03:04.326Z,99.90
2019-06-26T00:05:38.792Z,99.90
2019-06-26T00:08:13.260Z,99.90
2019-06-26T00:10:47.830Z,99.90
2019-06-26T00:13:26.605Z,99.90
2019-06-26T00:15:58.585Z,99.90
2019-06-26T00:18:33.143Z,99.90
2019-06-26T00:21:07.481Z,99.90
2019-06-26T00:23:41.835Z,99.90
2019-06-26T00:26:16.329Z,99.90
2019-06-26T00:28:50.701Z,99.90
2019-06-26T00:31:24.545Z,99.90
2019-06-26T00:33:58.690Z,99.90
2019-06-26T00:36:32.963Z,99.90
2019-06-26T00:39:08.312Z,99.90
2019-06-26T00:41:42.520Z,99.90
2019-06-26T00:44:16.793Z,99.90
2019-06-26T00:46:51.157Z,99.90
2019-06-26T00:49:25.704Z,99.90
2019-06-26T00:51:59.561Z,99.90
2019-06-26T00:54:34.184Z,99.90
2019-06-26T00:57:08.281Z,99.90
2019-06-26T00:59:42.434Z,99.90
2019-06-26T01:02:16.990Z,99.90
2019-06-26T01:04:56.087Z,99.90
2019-06-26T01:07:30.672Z,99.90
2019-06-26T01:10:06.932Z,99.90
2019-06-26T01:12:41.444Z,99.90
2019-06-26T01:15:19.035Z,99.90
2019-06-26T01:17:53.616Z,99.90
2019-06-26T01:20:29.161Z,99.90
2019-06-26T01:23:03.463Z,99.90
2019-06-26T01:25:37.986Z,99.90
2019-06-26T01:28:11.911Z,99.90
2019-06-26T01:30:45.870Z,99.90
2019-06-26T01:33:21.094Z,99.90
2019-06-26T01:35:55.079Z,99.90
2019-06-26T01:38:29.372Z,99.90
2019-06-26T01:41:03.773Z,99.90
2019-06-26T01:43:38.111Z,99.90
2019-06-26T01:46:12.601Z,99.90
2019-06-26T01:48:47.064Z,99.90
2019-06-26T01:51:21.677Z,99.90
2019-06-26T01:53:55.563Z,99.90
2019-06-26T01:56:29.714Z,99.90
2019-06-26T01:59:04.238Z,99.90
2019-06-26T02:01:39.895Z,99.90
2019-06-26T02:04:15.690Z,99.90
2019-06-26T02:06:50.638Z,99.90
2019-06-26T02:09:25.122Z,99.90
2019-06-26T02:12:00.528Z,99.90
2019-06-26T02:14:34.812Z,99.90
2019-06-26T02:17:09.283Z,99.90
2019-06-26T02:19:43.887Z,99.90
2019-06-26T02:22:17.843Z,99.90
2019-06-26T02:24:52.035Z,99.90
2019-06-26T02:27:26.581Z,99.90
2019-06-26T02:30:01.046Z,99.90
2019-06-26T02:32:35.697Z,99.90
2019-06-26T02:35:10.852Z,99.90
2019-06-26T02:37:45.613Z,99.90
2019-06-26T02:40:20.164Z,99.90
2019-06-26T02:42:54.815Z,99.90
2019-06-26T02:45:29.113Z,99.90
2019-06-26T02:48:06.363Z,99.90
2019-06-26T02:50:40.265Z,99.90
2019-06-26T02:53:14.706Z,99.90
2019-06-26T02:55:49.051Z,99.90
2019-06-26T02:58:23.298Z,99.90
2019-06-26T03:00:57.082Z,99.90
2019-06-26T03:03:31.025Z,99.90
2019-06-26T03:06:05.589Z,99.90
2019-06-26T03:08:40.920Z,99.90
2019-06-26T03:11:15.344Z,99.90
2019-06-26T03:13:49.992Z,99.90
2019-06-26T03:16:24.440Z,99.90
2019-06-26T03:18:58.878Z,99.90
2019-06-26T03:21:32.804Z,99.90
2019-06-26T03:24:06.759Z,99.90
2019-06-26T03:26:41.349Z,99.90
2019-06-26T03:29:15.203Z,99.90
2019-06-26T03:31:49.739Z,99.90
2019-06-26T03:34:24.529Z,99.90
2019-06-26T03:36:59.004Z,99.90
2019-06-26T03:39:33.260Z,99.90
2019-06-26T03:42:08.027Z,99.90
2019-06-26T03:44:42.377Z,99.90
2019-06-26T03:47:16.804Z,99.90
2019-06-26T03:49:50.917Z,99.90
2019-06-26T03:52:27.510Z,99.90
2019-06-26T03:55:01.760Z,99.90
2019-06-26T03:57:36.178Z,99.90
2019-06-26T04:00:12.998Z,99.90
2019-06-26T04:02:47.405Z,99.90
2019-06-26T04:05:21.671Z,99.90
2019-06-26T04:07:55.492Z,99.90
2019-06-26T04:10:29.545Z,99.90
2019-06-26T04:13:03.852Z,99.90
2019-06-26T04:15:42.374Z,99.90
2019-06-26T04:18:14.768Z,99.90
2019-06-26T04:20:48.688Z,99.90
2019-06-26T04:23:23.443Z,99.90
2019-06-26T04:25:57.961Z,99.90
2019-06-26T04:28:32.510Z,99.90
2019-06-26T04:31:07.169Z,99.90
2019-06-26T04:33:41.560Z,99.90
2019-06-26T04:36:15.510Z,99.90
2019-06-26T04:38:49.664Z,99.90
2019-06-26T04:41:24.045Z,99.90
2019-06-26T04:43:58.336Z,99.90
2019-06-26T04:46:32.494Z,99.90
2019-06-26T04:49:07.163Z,99.90
2019-06-26T04:51:41.314Z,99.90
2019-06-26T04:54:15.511Z,99.90
2019-06-26T04:56:50.223Z,99.90
2019-06-26T04:59:24.140Z,99.90
2019-06-26T05:01:58.483Z,99.90
2019-06-26T05:04:32.978Z,99.90
2019-06-26T05:07:07.262Z,99.90
2019-06-26T05:09:41.920Z,99.90
2019-06-26T05:12:16.324Z,99.90
2019-06-26T05:14:50.823Z,99.90
2019-06-26T05:17:25.463Z,99.90
2019-06-26T05:19:59.587Z,99.90
2019-06-26T05:22:34.145Z,99.90
2019-06-26T05:25:09.832Z,99.90
2019-06-26T05:27:43.776Z,99.90
2019-06-26T05:30:18.720Z,99.90
2019-06-26T05:32:52.981Z,99.90
2019-06-26T05:35:26.850Z,99.90
2019-06-26T05:38:00.714Z,99.90
2019-06-26T05:40:34.593Z,99.90
2019-06-26T05:43:08.590Z,99.90
2019-06-26T05:45:42.477Z,99.90
2019-06-26T05:48:16.350Z,99.90
2019-06-26T05:50:50.259Z,99.90
2019-06-26T05:53:24.216Z,99.90
2019-06-26T05:55:58.007Z,99.90
2019-06-26T05:58:31.901Z,99.90
2019-06-26T06:01:05.902Z,99.90
2019-06-26T06:03:39.835Z,99.90
2019-06-26T06:06:13.834Z,99.90
2019-06-26T06:08:47.692Z,99.90
2019-06-26T06:11:22.696Z,99.90
2019-06-26T06:13:56.768Z,99.90
2019-06-26T06:16:46.381Z,99.90
2019-06-26T06:19:06.894Z,99.90
2019-06-26T06:21:42.583Z,99.90
2019-06-26T06:24:16.523Z,99.90
2019-06-26T06:26:50.313Z,99.90
2019-06-26T06:29:24.231Z,99.90
2019-06-26T06:31:58.123Z,99.90
2019-06-26T06:34:32.134Z,99.90
2019-06-26T06:37:07.414Z,99.90
2019-06-26T06:39:41.402Z,99.90
2019-06-26T06:42:15.306Z,99.90
2019-06-26T06:44:49.250Z,99.90
2019-06-26T06:47:23.264Z,99.90
2019-06-26T06:49:57.126Z,99.90
2019-06-26T06:52:31.702Z,99.90
2019-06-26T06:55:08.031Z,99.90
2019-06-26T06:57:41.820Z,99.90
2019-06-26T07:00:15.869Z,99.90
2019-06-26T07:02:49.770Z,99.90
2019-06-26T07:05:23.755Z,99.90
2019-06-26T07:07:57.550Z,99.90
2019-06-26T07:10:31.493Z,99.90
2019-06-26T07:13:05.440Z,99.90
2019-06-26T07:15:39.383Z,99.90
2019-06-26T07:18:13.247Z,99.90
2019-06-26T07:20:47.183Z,99.90
2019-06-26T07:23:21.073Z,99.90
2019-06-26T07:25:56.062Z,99.90
2019-06-26T07:28:29.867Z,99.90
2019-06-26T07:31:03.746Z,99.90
2019-06-26T07:33:37.748Z,99.90
2019-06-26T07:36:12.180Z,99.90
2019-06-26T07:38:45.974Z,99.90
2019-06-26T07:41:19.836Z,99.90
2019-06-26T07:43:53.724Z,99.90
2019-06-26T07:46:27.609Z,99.90
2019-06-26T07:49:01.552Z,99.90
2019-06-26T07:51:35.719Z,99.90
2019-06-26T07:54:09.525Z,99.90
2019-06-26T07:56:43.483Z,99.90
2019-06-26T07:59:17.381Z,99.90
2019-06-26T08:01:51.378Z,99.90
2019-06-26T08:04:25.247Z,99.90
2019-06-26T08:06:59.202Z,99.90
2019-06-26T08:09:33.109Z,99.90
2019-06-26T08:12:07.780Z,99.90
2019-06-26T08:14:41.694Z,99.90
2019-06-26T08:17:15.634Z,99.90
2019-06-26T08:19:49.430Z,99.90
2019-06-26T08:22:23.441Z,99.90
2019-06-26T08:24:57.345Z,99.90
2019-06-26T08:27:31.284Z,99.90
2019-06-26T08:30:08.201Z,99.90
2019-06-26T08:32:42.073Z,99.90
2019-06-26T08:35:17.197Z,99.90
2019-06-26T08:37:51.088Z,99.90
2019-06-26T08:40:24.882Z,99.90
2019-06-26T08:42:58.745Z,99.90
2019-06-26T08:45:32.653Z,99.90
2019-06-26T08:48:19.059Z,99.90
2019-06-26T08:50:42.088Z,99.90
2019-06-26T08:53:16.033Z,99.90
2019-06-26T08:55:49.827Z,99.90
2019-06-26T08:58:23.780Z,99.90
2019-06-26T09:00:57.577Z,99.90
2019-06-26T09:03:31.527Z,99.90
2019-06-26T09:06:05.414Z,99.90
2019-06-26T09:08:39.366Z,99.90
2019-06-26T09:11:13.262Z,99.90
2019-06-26T09:13:47.155Z,99.90
2019-06-26T09:16:21.064Z,99.90
2019-06-26T09:18:55.002Z,99.90
2019-06-26T09:21:31.197Z,99.90
2019-06-26T09:24:07.238Z,99.90
2019-06-26T09:26:41.123Z,99.90
2019-06-26T09:29:15.004Z,99.90
2019-06-26T09:31:48.914Z,99.90
2019-06-26T09:34:22.904Z,99.90
2019-06-26T09:36:57.500Z,99.90
2019-06-26T09:39:31.541Z,99.90
2019-06-26T09:42:05.545Z,99.90
2019-06-26T09:44:39.376Z,99.90
2019-06-26T09:47:15.673Z,99.90
2019-06-26T09:49:49.737Z,99.90
2019-06-26T09:52:24.331Z,99.90
2019-06-26T09:54:59.121Z,99.90
2019-06-26T09:57:33.149Z,99.90
2019-06-26T10:00:12.491Z,99.90
2019-06-26T10:02:49.202Z,99.90
2019-06-26T10:05:23.141Z,99.90
2019-06-26T10:07:57.115Z,99.90
2019-06-26T10:10:31.739Z,99.90
2019-06-26T10:13:05.765Z,99.90
2019-06-26T10:15:39.691Z,99.90
2019-06-26T10:18:13.594Z,99.90
2019-06-26T10:20:47.542Z,99.90
2019-06-26T10:23:21.558Z,99.90
2019-06-26T10:25:55.801Z,99.90
2019-06-26T10:28:29.646Z,99.90
2019-06-26T10:31:03.598Z,99.90
2019-06-26T10:33:37.484Z,99.90
2019-06-26T10:36:11.502Z,99.90
2019-06-26T10:38:45.406Z,99.90
2019-06-26T10:41:20.366Z,99.90
2019-06-26T10:43:54.324Z,99.90
2019-06-26T10:46:28.810Z,99.90
2019-06-26T10:49:03.763Z,99.90
2019-06-26T10:51:37.783Z,99.90
2019-06-26T10:54:11.731Z,99.90
2019-06-26T10:56:58.643Z,99.40
2019-06-26T10:59:32.644Z,99.70
2019-06-26T11:02:07.326Z,99.00
2019-06-26T11:04:41.150Z,97.70
2019-06-26T11:07:15.102Z,95.90
2019-06-26T11:09:48.976Z,95.20
2019-06-26T11:12:22.935Z,96.20
2019-06-26T11:14:56.812Z,96.70
2019-06-26T11:17:30.734Z,94.80
2019-06-26T11:20:07.892Z,95.70
2019-06-26T11:22:41.879Z,95.30
2019-06-26T11:25:18.777Z,94.80
2019-06-26T11:27:52.734Z,93.30
2019-06-26T11:30:27.935Z,93.20
2019-06-26T11:33:01.911Z,93.60
2019-06-26T11:35:35.813Z,92.50
2019-06-26T11:38:09.811Z,90.80
2019-06-26T11:40:43.726Z,90.30
2019-06-26T11:43:17.685Z,90.70
2019-06-26T11:45:52.269Z,89.00
2019-06-26T11:48:26.224Z,85.60
2019-06-26T11:51:00.138Z,85.20
2019-06-26T11:53:34.805Z,86.70
2019-06-26T11:56:09.264Z,86.50
2019-06-26T11:58:43.204Z,85.60
2019-06-26T12:01:17.090Z,83.50
2019-06-26T12:03:50.920Z,82.90
2019-06-26T12:06:27.604Z,82.40
2019-06-26T12:09:01.453Z,82.10
2019-06-26T12:11:36.365Z,82.90
2019-06-26T12:14:10.322Z,81.70
2019-06-26T12:16:44.139Z,82.10
2019-06-26T12:19:20.999Z,78.90
2019-06-26T12:21:54.827Z,79.00
2019-06-26T12:24:28.665Z,79.80
2019-06-26T12:27:02.679Z,75.60
2019-06-26T12:29:36.646Z,76.90
2019-06-26T12:32:13.593Z,76.60
2019-06-26T12:34:47.740Z,75.50
2019-06-26T12:37:36.929Z,75.00
2019-06-26T12:39:59.968Z,74.70
2019-06-26T12:42:33.765Z,73.30
2019-06-26T12:45:09.171Z,72.90
2019-06-26T12:47:43.740Z,73.80
2019-06-26T12:50:34.841Z,70.70
2019-06-26T12:52:56.591Z,71.00
2019-06-26T12:55:33.056Z,67.00
2019-06-26T12:58:13.087Z,67.30
2019-06-26T13:00:42.013Z,66.70
2019-06-26T13:03:16.015Z,67.30
2019-06-26T13:05:50.048Z,67.20
2019-06-26T13:08:23.952Z,64.60
2019-06-26T13:10:57.927Z,65.30
2019-06-26T13:13:31.894Z,64.50
2019-06-26T13:16:07.117Z,63.60
2019-06-26T13:18:41.039Z,65.90
2019-06-26T13:21:14.960Z,64.70
2019-06-26T13:23:49.561Z,65.00
2019-06-26T13:26:23.467Z,64.90
2019-06-26T13:28:58.060Z,65.80
2019-06-26T13:31:32.095Z,65.50
2019-06-26T13:34:06.032Z,63.00
2019-06-26T13:36:39.981Z,62.80
2019-06-26T13:39:13.826Z,63.90
2019-06-26T13:41:47.808Z,62.70
2019-06-26T13:44:21.819Z,61.50
2019-06-26T13:46:55.770Z,60.20
2019-06-26T13:49:30.710Z,61.20
2019-06-26T13:52:05.331Z,62.00
2019-06-26T13:54:42.755Z,62.00
2019-06-26T13:57:16.691Z,61.10
2019-06-26T13:59:50.743Z,62.20
2019-06-26T14:02:24.742Z,61.40
2019-06-26T14:04:59.015Z,62.90
2019-06-26T14:07:32.989Z,62.20
2019-06-26T14:10:09.776Z,61.90
2019-06-26T14:12:44.205Z,59.90
2019-06-26T14:15:19.635Z,61.20
2019-06-26T14:17:53.505Z,60.20
2019-06-26T14:20:27.430Z,59.00
2019-06-26T14:23:01.373Z,59.50
2019-06-26T14:25:38.380Z,59.30
2019-06-26T14:28:12.413Z,60.80
2019-06-26T14:30:46.341Z,59.10
2019-06-26T14:33:20.252Z,58.90
2019-06-26T14:35:54.040Z,58.50
2019-06-26T14:38:27.987Z,58.40
2019-06-26T14:41:01.779Z,59.30
2019-06-26T14:43:35.660Z,58.90
2019-06-26T14:46:11.043Z,58.00
2019-06-26T14:48:44.998Z,58.20
2019-06-26T14:51:18.932Z,57.60
2019-06-26T14:53:52.870Z,57.40
2019-06-26T14:56:26.736Z,57.30
2019-06-26T14:59:00.755Z,57.10
2019-06-26T15:01:34.634Z,57.90
2019-06-26T15:04:08.593Z,58.30
2019-06-26T15:06:43.998Z,58.20
2019-06-26T15:09:18.119Z,59.60
2019-06-26T15:11:51.989Z,58.70
2019-06-26T15:14:26.158Z,58.20
2019-06-26T15:16:59.953Z,57.80
2019-06-26T15:19:52.037Z,57.10
2019-06-26T15:22:25.816Z,57.80
2019-06-26T15:24:59.772Z,57.10
2019-06-26T15:27:34.572Z,57.10
2019-06-26T15:30:12.164Z,57.20
2019-06-26T15:32:46.326Z,58.20
2019-06-26T15:35:20.226Z,58.90
2019-06-26T15:37:55.701Z,58.10
2019-06-26T15:40:32.590Z,58.40
2019-06-26T15:43:07.184Z,58.40
2019-06-26T15:45:42.487Z,58.10
2019-06-26T15:48:16.455Z,58.40
2019-06-26T15:50:50.286Z,57.60
2019-06-26T15:53:24.082Z,57.00
2019-06-26T15:55:59.113Z,56.50
2019-06-26T15:58:32.890Z,58.10
2019-06-26T16:01:07.164Z,56.70
2019-06-26T16:03:41.072Z,55.70
2019-06-26T16:06:15.033Z,55.40
2019-06-26T16:08:48.952Z,57.10
2019-06-26T16:11:23.052Z,56.60
2019-06-26T16:13:56.843Z,57.70
2019-06-26T16:16:31.543Z,57.90
2019-06-26T16:19:07.172Z,58.20
2019-06-26T16:21:41.164Z,59.00
2019-06-26T16:24:14.971Z,60.80
2019-06-26T16:26:49.146Z,61.70
2019-06-26T16:29:22.993Z,62.00
2019-06-26T16:32:07.306Z,62.30
2019-06-26T16:34:45.696Z,61.80
2019-06-26T16:37:19.695Z,62.30
2019-06-26T16:39:53.618Z,62.50
2019-06-26T16:42:27.526Z,64.30
2019-06-26T16:45:01.471Z,63.90
2019-06-26T16:47:35.410Z,65.90
2019-06-26T16:50:12.101Z,65.60
2019-06-26T16:52:49.534Z,65.60
2019-06-26T16:55:21.416Z,66.60
2019-06-26T16:57:55.353Z,67.10
2019-06-26T17:00:29.343Z,67.00
2019-06-26T17:03:03.353Z,67.70
2019-06-26T17:05:37.973Z,68.10
2019-06-26T17:08:11.843Z,68.50
2019-06-26T17:10:46.002Z,68.60
2019-06-26T17:13:19.913Z,69.10
2019-06-26T17:15:56.525Z,69.60
2019-06-26T17:18:30.523Z,70.40
2019-06-26T17:21:04.432Z,70.60
2019-06-26T17:23:38.422Z,70.60
2019-06-26T17:26:12.239Z,70.90
2019-06-26T17:28:46.243Z,71.30
2019-06-26T17:31:20.134Z,71.90
2019-06-26T17:33:54.163Z,72.40
2019-06-26T17:36:29.473Z,72.50
2019-06-26T17:39:03.313Z,72.70
2019-06-26T17:41:37.489Z,73.20
2019-06-26T17:44:12.334Z,73.60
2019-06-26T17:46:46.262Z,73.80
2019-06-26T17:49:20.431Z,74.30
2019-06-26T17:51:54.353Z,74.20
2019-06-26T17:54:28.507Z,74.60
2019-06-26T17:57:02.427Z,75.00
2019-06-26T17:59:36.425Z,75.60
2019-06-26T18:02:10.388Z,76.50
2019-06-26T18:04:45.003Z,77.00
2019-06-26T18:07:18.912Z,76.70
2019-06-26T18:09:53.569Z,77.40
2019-06-26T18:12:28.310Z,77.40
2019-06-26T18:15:02.159Z,78.50
2019-06-26T18:17:36.212Z,78.90
2019-06-26T18:20:10.772Z,79.10
2019-06-26T18:22:45.349Z,79.40
2019-06-26T18:25:20.393Z,80.40
2019-06-26T18:27:55.935Z,80.90
2019-06-26T18:30:29.892Z,81.40
2019-06-26T18:33:03.813Z,82.40
2019-06-26T18:35:38.593Z,83.40
2019-06-26T18:38:13.547Z,83.00
2019-06-26T18:40:52.315Z,83.50
2019-06-26T18:43:26.234Z,84.30
2019-06-26T18:46:00.186Z,84.60
2019-06-26T18:48:34.904Z,84.60
2019-06-26T18:51:08.846Z,85.30
2019-06-26T18:53:53.448Z,86.70
2019-06-26T18:56:21.092Z,86.80
2019-06-26T18:58:55.189Z,86.20
2019-06-26T19:01:29.089Z,86.50
2019-06-26T19:04:03.027Z,88.40
2019-06-26T19:06:37.482Z,87.70
2019-06-26T19:09:11.518Z,88.10
2019-06-26T19:11:45.394Z,88.50
2019-06-26T19:14:19.317Z,89.40
2019-06-26T19:16:53.286Z,89.20
2019-06-26T19:19:27.330Z,89.60
2019-06-26T19:22:02.970Z,89.70
2019-06-26T19:24:36.965Z,90.00
2019-06-26T19:27:15.520Z,90.10
2019-06-26T19:29:49.638Z,90.40
2019-06-26T19:32:25.078Z,90.50
2019-06-26T19:35:08.181Z,90.70
2019-06-26T19:37:45.437Z,90.90
2019-06-26T19:40:23.917Z,91.10
2019-06-26T19:42:56.664Z,91.30
2019-06-26T19:45:30.562Z,91.50
2019-06-26T19:48:04.674Z,91.80
2019-06-26T19:50:44.790Z,91.90
2019-06-26T19:53:18.802Z,92.20
2019-06-26T19:55:52.733Z,92.20
2019-06-26T19:58:26.693Z,92.50
2019-06-26T20:01:02.037Z,92.80
2019-06-26T20:03:35.863Z,92.90
2019-06-26T20:06:09.630Z,93.10
2019-06-26T20:08:54.558Z,93.40
2019-06-26T20:11:21.275Z,93.60
2019-06-26T20:14:02.970Z,93.90
2019-06-26T20:16:36.797Z,94.00
2019-06-26T20:19:12.399Z,94.30
2019-06-26T20:21:48.459Z,94.70
2019-06-26T20:24:23.170Z,94.80
2019-06-26T20:26:57.710Z,95.10
2019-06-26T20:29:31.579Z,95.50
2019-06-26T20:32:06.413Z,95.80
2019-06-26T20:34:40.359Z,96.10
2019-06-26T20:37:17.183Z,96.20
2019-06-26T20:39:51.306Z,96.50
2019-06-26T20:42:26.607Z,96.90
2019-06-26T20:45:00.532Z,97.10
2019-06-26T20:47:35.326Z,97.30
2019-06-26T20:50:12.537Z,97.60
2019-06-26T20:52:46.355Z,98.00
2019-06-26T20:55:21.649Z,98.30
2019-06-26T20:57:58.662Z,98.60
2019-06-26T21:00:32.502Z,98.90
2019-06-26T21:03:06.323Z,99.20
2019-06-26T21:05:41.698Z,99.40
2019-06-26T21:08:17.045Z,99.90
2019-06-26T21:10:51.638Z,99.90
2019-06-26T21:13:25.453Z,99.90
2019-06-26T21:16:00.075Z,99.90
2019-06-26T21:18:33.888Z,99.90
2019-06-26T21:21:10.521Z,99.90
2019-06-26T21:23:44.223Z,99.90
2019-06-26T21:26:18.195Z,99.90
2019-06-26T21:28:52.234Z,99.90
2019-06-26T21:31:30.521Z,99.90
2019-06-26T21:34:05.235Z,99.90
2019-06-26T21:36:41.914Z,99.90
2019-06-26T21:39:17.864Z,99.90
2019-06-26T21:41:51.691Z,99.90
2019-06-26T21:44:25.530Z,99.90
2019-06-26T21:46:59.459Z,99.90
2019-06-26T21:49:33.284Z,99.90
2019-06-26T21:52:10.386Z,99.90
2019-06-26T21:54:44.289Z,99.90
2019-06-26T21:57:36.338Z,99.90
2019-06-26T22:00:29.740Z,99.90
2019-06-26T22:03:21.274Z,99.90
2019-06-26T22:05:57.634Z,99.90
2019-06-26T22:08:49.625Z,99.90
2019-06-26T22:11:25.694Z,99.90
2019-06-26T22:14:00.166Z,99.90
2019-06-26T22:16:33.961Z,99.90
2019-06-26T22:19:08.537Z,99.90
2019-06-26T22:21:43.027Z,99.90
2019-06-26T22:24:17.594Z,99.90
2019-06-26T22:26:52.323Z,99.90
2019-06-26T22:29:26.641Z,99.90
2019-06-26T22:32:01.079Z,99.90
2019-06-26T22:34:35.718Z,99.90
2019-06-26T22:37:10.013Z,99.90
2019-06-26T22:39:44.675Z,99.90
2019-06-26T22:42:19.074Z,99.90
2019-06-26T22:44:53.219Z,99.90
2019-06-26T22:47:28.331Z,99.90
2019-06-26T22:50:02.929Z,99.90
2019-06-26T22:52:37.495Z,99.90
2019-06-26T22:55:12.747Z,99.90
2019-06-26T22:57:47.050Z,99.90
2019-06-26T23:00:24.885Z,99.90
2019-06-26T23:02:59.201Z,99.90
2019-06-26T23:05:33.678Z,99.90
2019-06-26T23:08:07.993Z,99.90
2019-06-26T23:10:42.165Z,99.90
2019-06-26T23:13:20.383Z,99.90
2019-06-26T23:15:55.892Z,99.90
2019-06-26T23:18:30.036Z,99.90
2019-06-26T23:21:04.544Z,99.90
2019-06-26T23:23:38.975Z,99.90
2019-06-26T23:26:23.455Z,99.90
2019-06-26T23:28:49.211Z,99.90
2019-06-26T23:31:23.561Z,99.90
2019-06-26T23:33:57.638Z,99.90
2019-06-26T23:36:32.281Z,99.90
2019-06-26T23:39:07.095Z,99.90
2019-06-26T23:41:41.564Z,99.90
2019-06-26T23:44:19.194Z,99.90
2019-06-26T23:46:53.762Z,99.90
2019-06-26T23:49:27.974Z,99.90
2019-06-26T23:52:02.321Z,99.90
2019-06-26T23:54:36.250Z,99.90
2019-06-26T23:57:10.689Z,99.90
2019-06-26T23:59:44.708Z,99.90
